Página principal
METAR-TAF:

METAR-TAF

Aeroportos :

Aeroporto de Bruxelas. Zaventem

Bruxelas, Bélgica

latitude: 50-54N, longitude: 004-32E, altura: 55 m

Observação actual do tempo

O boletim foi feito há 10 minutos, às 22:50 UTC
Vento 4 kt de sudeste
Temperatura 2°C
Humidade 87%
Pressão 1004 hPa
Visibilidade 10 km ou mais
sem nuvens abaixo de 1500 metros e sem cumulonimbus

METAR: EBBR 152250Z 13004KT CAVOK 02/00 Q1004 NOSIG

Hora: 00:00 (23:00 UTC)

Previsão

O boletim foi feito há 5 horas e 40 minutos, às 17:20 UTC
Previsão válida de 15 às 18 UTC a 16 às 24 UTC
Vento 7 kt de sul
Visibilidade: 8000 m
Nuvens fragmentadasa uma altura de 2000 ft

TAF: EBBR 151720Z 1518/1624 17007KT 8000 BKN020

Observações e previsões do tempo de mais de 4000 aeroportos (mensagens METAR e TAF).

As estações disponíveis são os pontos amarelos e vermelhos sobre o mapa.

Mova o rato sobre o mapa para ver o nome da estação.

Depois clique no ponto para visualizar as observações e previsões meteorológicas.

Para alterar o mapa : clique nos botões verdes com uma cruz preta para aumentar o zoom; no botão verde com uma pitada de zoom; ou nas setas verdes para mapas adjacentes.


METAR-TAF: